createdAt,value
2023-04-11T00:01:38.981Z,37.57
2023-04-11T00:04:40.701Z,36.33
2023-04-11T00:07:42.382Z,36.33
2023-04-11T00:10:45.626Z,34.63
2023-04-11T00:13:48.492Z,33.43
2023-04-11T00:16:53.768Z,33.43
2023-04-11T00:19:55.915Z,36.73
2023-04-11T00:22:58.443Z,35.03
2023-04-11T00:26:00.042Z,37.80
2023-04-11T00:29:01.750Z,35.80
2023-04-11T00:32:03.818Z,35.93
2023-04-11T00:35:05.790Z,37.57
2023-04-11T00:38:07.437Z,37.67
2023-04-11T00:41:09.084Z,36.93
2023-04-11T00:44:11.713Z,36.77
2023-04-11T00:47:13.851Z,36.00
2023-04-11T00:50:16.785Z,39.17
2023-04-11T00:53:18.924Z,37.90
2023-04-11T00:56:20.880Z,39.97
2023-04-11T00:59:22.705Z,39.23
2023-04-11T01:02:27.360Z,36.00
2023-04-11T01:05:29.604Z,39.43
2023-04-11T01:08:31.216Z,37.70
2023-04-11T01:11:33.658Z,36.40
2023-04-11T01:14:35.461Z,42.70
2023-04-11T01:17:37.268Z,41.30
2023-04-11T01:20:39.629Z,39.87
2023-04-11T01:23:41.690Z,40.00
2023-04-11T01:26:43.964Z,40.10
2023-04-11T01:29:45.907Z,39.33
2023-04-11T01:32:47.693Z,38.33
2023-04-11T01:35:49.421Z,36.93
2023-04-11T01:38:51.094Z,38.40
2023-04-11T01:41:54.049Z,38.17
2023-04-11T01:44:56.534Z,37.60
2023-04-11T01:47:58.425Z,37.97
2023-04-11T01:51:00.168Z,38.13
2023-04-11T01:54:01.903Z,38.30
2023-04-11T01:57:04.133Z,36.47
2023-04-11T02:00:06.448Z,37.93
2023-04-11T02:03:17.649Z,36.80
2023-04-11T02:06:19.574Z,37.70
2023-04-11T02:09:21.223Z,36.67
2023-04-11T02:12:22.869Z,35.63
2023-04-11T02:15:24.572Z,36.87
2023-04-11T02:18:26.139Z,35.63
2023-04-11T02:21:29.322Z,37.43
2023-04-11T02:24:32.602Z,38.37
2023-04-11T02:27:34.439Z,35.47
2023-04-11T02:30:36.098Z,34.97
2023-04-11T02:33:37.723Z,38.23
2023-04-11T02:36:39.965Z,38.97
2023-04-11T02:39:41.561Z,38.27
2023-04-11T02:42:43.454Z,37.73
2023-04-11T02:45:45.710Z,37.57
2023-04-11T02:48:48.344Z,35.37
2023-04-11T02:51:50.434Z,38.53
2023-04-11T02:54:52.115Z,37.10
2023-04-11T02:57:53.894Z,35.60
2023-04-11T03:00:56.848Z,36.07
2023-04-11T03:03:58.895Z,39.80
2023-04-11T03:07:09.213Z,34.93
2023-04-11T03:10:11.398Z,36.80
2023-04-11T03:13:13.136Z,36.00
2023-04-11T03:16:15.759Z,37.30
2023-04-11T03:19:17.441Z,39.37
2023-04-11T03:22:19.163Z,35.93
2023-04-11T03:25:22.744Z,36.27
2023-04-11T03:28:26.279Z,37.10
2023-04-11T03:31:30.310Z,40.67
2023-04-11T03:34:32.133Z,37.53
2023-04-11T03:37:33.852Z,36.93
2023-04-11T03:40:35.971Z,37.27
2023-04-11T03:43:43.680Z,35.73
2023-04-11T03:46:45.786Z,36.47
2023-04-11T03:49:48.021Z,34.07
2023-04-11T03:52:50.605Z,37.40
2023-04-11T03:55:53.730Z,37.10
2023-04-11T03:58:59.066Z,40.23
2023-04-11T04:02:06.234Z,35.73
2023-04-11T04:05:10.535Z,40.63
2023-04-11T04:08:14.033Z,34.40
2023-04-11T04:11:18.523Z,36.80
2023-04-11T04:14:21.591Z,38.40
2023-04-11T04:17:23.886Z,37.07
2023-04-11T04:20:25.750Z,33.50
2023-04-11T04:23:32.540Z,35.87
2023-04-11T04:26:53.814Z,34.97
2023-04-11T04:30:11.228Z,36.17
2023-04-11T04:33:28.126Z,43.10
2023-04-11T04:36:33.301Z,44.17
2023-04-11T04:39:35.180Z,41.83
2023-04-11T04:42:37.355Z,37.40
2023-04-11T04:45:40.333Z,36.00
2023-04-11T04:48:42.430Z,40.77
2023-04-11T04:51:44.049Z,41.07
2023-04-11T04:54:45.817Z,40.17
2023-04-11T04:57:47.701Z,39.60
2023-04-11T05:00:55.899Z,39.33
2023-04-11T05:04:02.602Z,35.30
2023-04-11T05:07:20.880Z,37.53
2023-04-11T05:10:25.937Z,39.13
2023-04-11T05:13:28.740Z,35.90
2023-04-11T05:16:31.297Z,38.43
2023-04-11T05:19:33.701Z,40.37
2023-04-11T05:22:36.401Z,35.83
2023-04-11T05:25:38.174Z,41.67
2023-04-11T05:28:43.627Z,42.50
2023-04-11T05:31:50.208Z,36.63
2023-04-11T05:34:55.190Z,49.90
2023-04-11T05:38:06.386Z,37.83
2023-04-11T05:41:08.791Z,35.17
2023-04-11T05:44:10.622Z,41.03
2023-04-11T05:47:12.357Z,39.57
2023-04-11T05:50:14.380Z,41.33
2023-04-11T05:53:16.514Z,42.53
2023-04-11T05:56:18.124Z,40.30
2023-04-11T05:59:25.080Z,43.60
2023-04-11T06:02:28.784Z,44.63
2023-04-11T06:05:31.628Z,44.60
2023-04-11T06:08:34.409Z,45.00
2023-04-11T06:11:36.216Z,46.07
2023-04-11T06:14:40.599Z,43.50
2023-04-11T06:17:42.522Z,42.67
2023-04-11T06:20:46.230Z,44.43
2023-04-11T06:23:47.936Z,46.67
2023-04-11T06:26:49.495Z,42.47
2023-04-11T06:29:51.161Z,39.50
2023-04-11T06:32:52.917Z,45.23
2023-04-11T06:35:54.623Z,38.53
2023-04-11T06:38:56.420Z,41.00
2023-04-11T06:41:58.049Z,36.63
2023-04-11T06:45:01.064Z,36.33
2023-04-11T06:48:02.730Z,40.37
2023-04-11T06:51:04.488Z,41.23
2023-04-11T06:54:06.437Z,46.37
2023-04-11T06:57:10.179Z,42.10
2023-04-11T07:00:13.208Z,41.37
2023-04-11T07:03:15.054Z,38.23
2023-04-11T07:06:17.036Z,37.33
2023-04-11T07:09:18.709Z,39.27
2023-04-11T07:12:20.504Z,39.53
2023-04-11T07:15:23.858Z,37.03
2023-04-11T07:18:27.420Z,42.53
2023-04-11T07:21:29.559Z,35.43
2023-04-11T07:24:31.208Z,36.03
2023-04-11T07:27:32.808Z,40.33
2023-04-11T07:30:35.657Z,35.00
2023-04-11T07:33:37.729Z,34.23
2023-04-11T07:36:39.466Z,32.97
2023-04-11T07:39:41.080Z,34.67
2023-04-11T07:42:42.801Z,32.53
2023-04-11T07:45:44.660Z,34.50
2023-04-11T07:48:46.400Z,35.47
2023-04-11T07:51:48.055Z,34.50
2023-04-11T07:54:49.799Z,31.20
2023-04-11T07:57:51.590Z,30.13
2023-04-11T08:00:53.825Z,30.63
2023-04-11T08:03:56.322Z,32.83
2023-04-11T08:06:58.294Z,33.80
2023-04-11T08:09:59.872Z,32.40
2023-04-11T08:13:01.565Z,29.23
2023-04-11T08:16:04.372Z,27.67
2023-04-11T08:19:06.960Z,27.57
2023-04-11T08:22:08.564Z,29.20
2023-04-11T08:25:11.001Z,43.60
2023-04-11T08:28:12.656Z,35.13
2023-04-11T08:31:14.272Z,26.40
2023-04-11T08:34:16.220Z,25.47
2023-04-11T08:37:17.915Z,26.53
2023-04-11T08:40:19.603Z,30.27
2023-04-11T08:43:21.929Z,26.83
2023-04-11T08:46:23.835Z,30.83
2023-04-11T08:49:25.520Z,27.67
2023-04-11T08:52:27.452Z,24.60
2023-04-11T08:55:29.431Z,36.03
2023-04-11T08:58:32.373Z,26.77
2023-04-11T09:01:37.100Z,31.00
2023-04-11T09:04:40.325Z,30.37
2023-04-11T09:07:49.931Z,28.37
2023-04-11T09:10:51.789Z,24.47
2023-04-11T09:14:09.912Z,27.80
2023-04-11T09:17:14.702Z,25.83
2023-04-11T09:20:20.301Z,24.27
2023-04-11T09:23:22.294Z,22.27
2023-04-11T09:26:28.102Z,26.87
2023-04-11T09:29:46.208Z,28.73
2023-04-11T09:32:48.865Z,26.77
2023-04-11T09:35:54.297Z,19.70
2023-04-11T09:38:56.787Z,21.27
2023-04-11T09:41:58.539Z,21.00
2023-04-11T09:45:00.440Z,21.43
2023-04-11T09:48:02.102Z,18.87
2023-04-11T09:51:09.709Z,15.50
2023-04-11T09:54:12.099Z,16.70
2023-04-11T09:57:14.110Z,18.87
2023-04-11T10:00:18.505Z,15.33
2023-04-11T10:03:23.500Z,18.83
2023-04-11T10:06:34.322Z,15.40
2023-04-11T10:09:38.788Z,17.13
2023-04-11T10:12:40.425Z,18.60
2023-04-11T10:16:02.240Z,15.43
2023-04-11T10:19:06.859Z,16.37
2023-04-11T10:22:08.524Z,15.80
2023-04-11T10:25:17.553Z,12.30
2023-04-11T10:28:31.356Z,14.07
2023-04-11T10:31:52.945Z,16.93
2023-04-11T10:34:54.636Z,12.97
2023-04-11T10:37:56.388Z,19.83
2023-04-11T10:41:17.168Z,15.47
2023-04-11T10:44:23.398Z,15.73
2023-04-11T10:47:26.350Z,14.07
2023-04-11T10:50:28.481Z,16.30
2023-04-11T10:53:34.133Z,17.20
2023-04-11T10:56:48.978Z,17.87
2023-04-11T10:59:50.575Z,14.93
2023-04-11T11:02:52.440Z,16.03
2023-04-11T11:06:05.271Z,18.13
2023-04-11T11:09:25.686Z,17.27
2023-04-11T11:12:27.333Z,17.43
2023-04-11T11:15:29.703Z,17.13
2023-04-11T11:18:31.586Z,18.37
2023-04-11T11:21:34.779Z,18.30
2023-04-11T11:24:36.476Z,16.80
2023-04-11T11:27:38.143Z,16.33
2023-04-11T11:30:49.329Z,17.83
2023-04-11T11:33:50.967Z,16.40
2023-04-11T11:36:53.207Z,16.57
2023-04-11T11:39:55.276Z,15.23
2023-04-11T11:42:56.970Z,18.67
2023-04-11T11:46:14.802Z,15.43
2023-04-11T11:49:16.635Z,20.57
2023-04-11T11:52:51.053Z,12.07
2023-04-11T11:55:53.332Z,20.33
2023-04-11T11:58:55.388Z,14.30
2023-04-11T12:01:57.241Z,18.07
2023-04-11T12:05:00.253Z,11.73
2023-04-11T12:08:04.112Z,17.97
2023-04-11T12:11:10.662Z,16.33
2023-04-11T12:14:21.867Z,14.83
2023-04-11T12:17:23.584Z,15.53
2023-04-11T12:20:26.438Z,14.80
2023-04-11T12:23:28.235Z,21.67
2023-04-11T12:26:29.967Z,10.87
2023-04-11T12:29:31.800Z,14.57
2023-04-11T12:32:34.197Z,12.80
2023-04-11T12:35:35.978Z,10.83
2023-04-11T12:38:37.902Z,13.57
2023-04-11T12:41:39.503Z,7.57
2023-04-11T12:44:41.193Z,9.60
2023-04-11T12:47:43.101Z,7.97
2023-04-11T12:50:45.008Z,9.90
2023-04-11T12:53:46.747Z,7.60
2023-04-11T12:56:48.401Z,10.00
2023-04-11T12:59:50.201Z,9.37
2023-04-11T13:02:51.986Z,11.07
2023-04-11T13:05:53.799Z,8.10
2023-04-11T13:08:57.208Z,5.87
2023-04-11T13:11:59.323Z,7.43
2023-04-11T13:15:01.297Z,8.47
2023-04-11T13:18:03.342Z,10.00
2023-04-11T13:21:04.978Z,13.23
2023-04-11T13:24:07.312Z,8.33
2023-04-11T13:27:09.022Z,10.30
2023-04-11T13:30:11.387Z,9.10
2023-04-11T13:33:13.015Z,8.33
2023-04-11T13:36:14.687Z,9.60
2023-04-11T13:39:16.435Z,12.10
2023-04-11T13:42:18.146Z,11.60
2023-04-11T13:45:19.910Z,14.87
2023-04-11T13:48:21.616Z,13.80
2023-04-11T13:51:23.354Z,14.67
2023-04-11T13:54:26.165Z,13.40
2023-04-11T13:57:28.577Z,9.40
2023-04-11T14:00:30.218Z,9.03
2023-04-11T14:03:33.878Z,9.60
2023-04-11T14:06:37.502Z,7.27
2023-04-11T14:09:39.224Z,7.93
2023-04-11T14:12:40.929Z,8.97
2023-04-11T14:15:42.560Z,7.43
2023-04-11T14:18:44.741Z,11.00
2023-04-11T14:21:46.548Z,15.27
2023-04-11T14:24:48.312Z,7.37
2023-04-11T14:27:50.031Z,8.17
2023-04-11T14:30:51.983Z,11.87
2023-04-11T14:33:53.862Z,11.23
2023-04-11T14:36:55.554Z,17.30
2023-04-11T14:39:57.256Z,16.90
2023-04-11T14:42:58.936Z,28.00
2023-04-11T14:46:00.674Z,12.83
2023-04-11T14:49:02.414Z,13.37
2023-04-11T14:52:04.120Z,18.83
2023-04-11T14:55:06.135Z,14.77
2023-04-11T14:58:07.692Z,14.20
2023-04-11T15:01:09.400Z,11.67
2023-04-11T15:04:11.375Z,9.90
2023-04-11T15:07:13.310Z,14.87
2023-04-11T15:10:16.549Z,13.43
2023-04-11T15:13:18.247Z,17.83
2023-04-11T15:16:21.837Z,18.10
2023-04-11T15:19:23.724Z,22.40
2023-04-11T15:22:26.458Z,24.07
2023-04-11T15:25:28.158Z,16.13
2023-04-11T15:28:34.320Z,21.23
2023-04-11T15:31:37.863Z,21.30
2023-04-11T15:34:40.625Z,18.37
2023-04-11T15:37:42.361Z,15.33
2023-04-11T15:40:44.122Z,14.40
2023-04-11T15:43:45.829Z,33.80
2023-04-11T15:46:49.473Z,12.13
2023-04-11T15:49:51.293Z,14.87
2023-04-11T15:52:52.984Z,12.20
2023-04-11T15:55:54.858Z,13.40
2023-04-11T15:58:56.537Z,13.83
2023-04-11T16:01:58.353Z,13.67
2023-04-11T16:05:01.432Z,13.47
2023-04-11T16:08:03.488Z,15.37
2023-04-11T16:11:05.411Z,18.80
2023-04-11T16:14:07.180Z,24.13
2023-04-11T16:17:08.849Z,12.23
2023-04-11T16:20:18.159Z,21.00
2023-04-11T16:23:19.879Z,33.67
2023-04-11T16:26:21.508Z,14.40
2023-04-11T16:29:23.471Z,23.53
2023-04-11T16:32:25.397Z,20.33
2023-04-11T16:35:27.091Z,18.90
2023-04-11T16:38:28.701Z,16.60
2023-04-11T16:41:30.408Z,24.53
2023-04-11T16:44:32.090Z,19.83
2023-04-11T16:47:33.937Z,15.30
2023-04-11T16:50:35.609Z,14.10
2023-04-11T16:53:37.581Z,18.23
2023-04-11T16:56:39.339Z,15.43
2023-04-11T16:59:41.442Z,23.67
2023-04-11T17:02:44.485Z,23.27
2023-04-11T17:05:46.755Z,19.37
2023-04-11T17:08:48.369Z,17.83
2023-04-11T17:11:50.035Z,17.67
2023-04-11T17:14:52.675Z,21.10
2023-04-11T17:17:54.390Z,17.43
2023-04-11T17:20:56.091Z,18.57
2023-04-11T17:23:57.845Z,24.47
2023-04-11T17:26:59.753Z,23.57
2023-04-11T17:30:01.502Z,13.90
2023-04-11T17:33:03.551Z,14.63
2023-04-11T17:36:05.704Z,17.47
2023-04-11T17:39:07.818Z,21.70
2023-04-11T17:42:10.009Z,16.53
2023-04-11T17:45:17.543Z,19.00
2023-04-11T17:48:22.961Z,20.80
2023-04-11T17:51:24.752Z,19.87
2023-04-11T17:54:26.782Z,24.60
2023-04-11T17:57:28.826Z,21.90
2023-04-11T18:00:48.420Z,33.40
2023-04-11T18:03:57.160Z,22.03
2023-04-11T18:06:59.179Z,36.60
2023-04-11T18:10:01.323Z,30.60
2023-04-11T18:13:03.522Z,34.93
2023-04-11T18:16:05.335Z,24.10
2023-04-11T18:19:07.016Z,26.30
2023-04-11T18:22:08.588Z,25.83
2023-04-11T18:25:10.448Z,25.53
2023-04-11T18:28:12.150Z,26.00
2023-04-11T18:31:14.223Z,24.47
2023-04-11T18:34:16.090Z,36.93
2023-04-11T18:37:17.893Z,26.30
2023-04-11T18:40:19.664Z,27.97
2023-04-11T18:43:21.460Z,29.77
2023-04-11T18:46:23.360Z,26.17
2023-04-11T18:49:24.974Z,27.73
2023-04-11T18:52:28.139Z,29.90
2023-04-11T18:55:30.730Z,36.23
2023-04-11T18:58:34.054Z,44.20
2023-04-11T19:01:36.517Z,32.57
2023-04-11T19:04:38.942Z,31.90
2023-04-11T19:07:41.471Z,25.63
2023-04-11T19:10:43.094Z,26.67
2023-04-11T19:13:44.697Z,26.10
2023-04-11T19:16:46.836Z,29.40
2023-04-11T19:19:48.616Z,33.83
2023-04-11T19:22:51.112Z,27.80
2023-04-11T19:25:52.790Z,29.03
2023-04-11T19:28:55.076Z,32.40
2023-04-11T19:31:56.738Z,31.23
2023-04-11T19:34:58.810Z,31.63
2023-04-11T19:38:02.662Z,34.30
2023-04-11T19:41:14.092Z,33.83
2023-04-11T19:44:16.532Z,28.73
2023-04-11T19:47:19.512Z,35.77
2023-04-11T19:50:22.969Z,34.10
2023-04-11T19:53:24.648Z,35.20
2023-04-11T19:56:26.298Z,43.47
2023-04-11T19:59:28.028Z,46.97
2023-04-11T20:02:29.753Z,38.73
2023-04-11T20:05:32.118Z,42.40
2023-04-11T20:08:33.913Z,44.60
2023-04-11T20:11:36.742Z,39.17
2023-04-11T20:14:38.514Z,39.23
2023-04-11T20:17:40.283Z,43.40
2023-04-11T20:20:42.104Z,42.80
2023-04-11T20:23:43.781Z,41.63
2023-04-11T20:26:45.616Z,47.77
2023-04-11T20:29:47.295Z,40.67
2023-04-11T20:32:49.064Z,42.53
2023-04-11T20:35:50.829Z,47.27
2023-04-11T20:38:52.591Z,41.90
2023-04-11T20:41:54.402Z,47.63
2023-04-11T20:45:02.452Z,47.90
2023-04-11T20:48:06.337Z,50.10
2023-04-11T20:51:08.770Z,45.07
2023-04-11T20:54:11.103Z,45.43
2023-04-11T20:57:12.701Z,50.50
2023-04-11T21:00:15.005Z,43.73
2023-04-11T21:03:16.887Z,48.27
2023-04-11T21:06:18.619Z,48.70
2023-04-11T21:09:20.554Z,44.67
2023-04-11T21:12:22.211Z,43.60
2023-04-11T21:15:23.930Z,43.87
2023-04-11T21:18:25.653Z,44.67
2023-04-11T21:21:28.263Z,42.50
2023-04-11T21:24:33.677Z,39.33
2023-04-11T21:27:35.621Z,42.60
2023-04-11T21:30:37.927Z,40.57
2023-04-11T21:33:39.561Z,41.30
2023-04-11T21:36:41.190Z,38.30
2023-04-11T21:39:42.870Z,41.30
2023-04-11T21:42:44.580Z,42.90
2023-04-11T21:45:46.318Z,43.40
2023-04-11T21:48:49.511Z,41.17
2023-04-11T21:51:51.824Z,34.40
2023-04-11T21:54:53.520Z,33.23
2023-04-11T21:57:55.655Z,31.50
2023-04-11T22:00:57.280Z,27.03
2023-04-11T22:03:59.652Z,24.17
2023-04-11T22:07:01.638Z,24.50
2023-04-11T22:10:09.220Z,17.93
2023-04-11T22:13:20.104Z,21.03
2023-04-11T22:16:30.338Z,19.47
2023-04-11T22:19:33.826Z,19.60
2023-04-11T22:22:35.682Z,19.10
2023-04-11T22:25:37.520Z,17.50
2023-04-11T22:28:39.308Z,15.03
2023-04-11T22:31:41.118Z,13.47
2023-04-11T22:34:42.806Z,14.07
2023-04-11T22:37:44.819Z,14.20
2023-04-11T22:40:46.515Z,15.43
2023-04-11T22:43:48.114Z,13.70
2023-04-11T22:47:00.683Z,15.43
2023-04-11T22:50:03.783Z,14.63
2023-04-11T22:53:05.947Z,16.00
2023-04-11T22:56:09.075Z,14.53
2023-04-11T22:59:10.944Z,14.53
2023-04-11T23:02:12.776Z,13.70
2023-04-11T23:05:14.721Z,16.27
2023-04-11T23:08:16.692Z,14.23
2023-04-11T23:11:18.381Z,13.63
2023-04-11T23:14:22.415Z,15.57
2023-04-11T23:17:24.771Z,15.77
2023-04-11T23:20:26.466Z,15.37
2023-04-11T23:23:28.715Z,14.20
2023-04-11T23:26:30.495Z,13.57
2023-04-11T23:29:32.250Z,12.97
2023-04-11T23:32:34.132Z,14.53
2023-04-11T23:35:36.129Z,12.50
2023-04-11T23:38:37.859Z,14.57
2023-04-11T23:41:39.518Z,13.77
2023-04-11T23:44:41.284Z,13.87
2023-04-11T23:47:42.981Z,16.43
2023-04-11T23:50:44.604Z,15.20
2023-04-11T23:53:46.302Z,14.73
2023-04-11T23:56:47.929Z,16.30
2023-04-11T23:59:49.521Z,15.23
